createdAt,value
2018-06-21T00:01:45.503Z,20.46
2018-06-21T00:04:14.143Z,20.47
2018-06-21T00:06:42.768Z,20.40
2018-06-21T00:09:11.423Z,20.32
2018-06-21T00:11:41.059Z,20.27
2018-06-21T00:14:09.967Z,20.02
2018-06-21T00:16:38.589Z,19.57
2018-06-21T00:19:07.503Z,19.44
2018-06-21T00:21:36.141Z,19.42
2018-06-21T00:24:04.770Z,19.41
2018-06-21T00:26:33.415Z,19.43
2018-06-21T00:29:02.065Z,19.51
2018-06-21T00:31:30.772Z,19.54
2018-06-21T00:33:59.381Z,19.64
2018-06-21T00:36:28.346Z,19.67
2018-06-21T00:38:56.975Z,19.67
2018-06-21T00:41:25.882Z,19.32
2018-06-21T00:43:54.522Z,19.17
2018-06-21T00:46:23.157Z,19.19
2018-06-21T00:48:51.774Z,19.30
2018-06-21T00:51:21.199Z,19.33
2018-06-21T00:53:49.890Z,19.38
2018-06-21T00:56:20.515Z,19.31
2018-06-21T00:58:50.070Z,19.32
2018-06-21T01:01:19.035Z,19.40
2018-06-21T01:03:48.195Z,19.50
2018-06-21T01:06:16.873Z,19.46
2018-06-21T01:08:45.515Z,19.47
2018-06-21T01:11:14.299Z,19.64
2018-06-21T01:13:42.899Z,19.52
2018-06-21T01:16:11.822Z,19.60
2018-06-21T01:18:40.446Z,19.63
2018-06-21T01:21:09.133Z,19.64
2018-06-21T01:23:37.755Z,19.51
2018-06-21T01:26:06.630Z,19.58
2018-06-21T01:28:35.257Z,19.48
2018-06-21T01:31:03.959Z,19.51
2018-06-21T01:33:32.583Z,19.35
2018-06-21T01:36:01.791Z,19.43
2018-06-21T01:38:30.579Z,19.38
2018-06-21T01:40:59.242Z,19.29
2018-06-21T01:43:27.867Z,19.26
2018-06-21T01:45:56.508Z,19.24
2018-06-21T01:48:25.139Z,19.30
2018-06-21T01:50:53.805Z,19.18
2018-06-21T01:53:22.408Z,19.19
2018-06-21T01:55:51.053Z,19.28
2018-06-21T01:58:19.629Z,19.31
2018-06-21T02:00:48.238Z,19.41
2018-06-21T02:03:16.857Z,19.35
2018-06-21T02:05:45.752Z,19.37
2018-06-21T02:08:14.431Z,19.26
2018-06-21T02:10:43.046Z,19.07
2018-06-21T02:13:11.658Z,19.10
2018-06-21T02:15:40.550Z,19.01
2018-06-21T02:18:09.218Z,19.01
2018-06-21T02:20:37.853Z,19.01
2018-06-21T02:23:06.490Z,18.86
2018-06-21T02:25:35.156Z,18.78
2018-06-21T02:28:03.839Z,18.70
2018-06-21T02:30:32.462Z,18.69
2018-06-21T02:33:01.093Z,18.67
2018-06-21T02:35:30.328Z,18.60
2018-06-21T02:37:58.935Z,18.78
2018-06-21T02:40:27.595Z,18.93
2018-06-21T02:42:56.294Z,19.02
2018-06-21T02:45:25.232Z,19.07
2018-06-21T02:47:54.198Z,19.13
2018-06-21T02:50:22.843Z,19.16
2018-06-21T02:52:51.550Z,19.19
2018-06-21T02:55:20.247Z,19.04
2018-06-21T02:57:49.196Z,19.03
2018-06-21T03:00:18.157Z,18.97
2018-06-21T03:02:46.794Z,18.84
2018-06-21T03:05:15.693Z,18.90
2018-06-21T03:07:44.320Z,18.87
2018-06-21T03:10:12.982Z,18.91
2018-06-21T03:12:41.952Z,19.01
2018-06-21T03:15:10.885Z,19.16
2018-06-21T03:17:39.594Z,18.94
2018-06-21T03:20:08.271Z,19.00
2018-06-21T03:22:36.965Z,19.13
2018-06-21T03:25:05.623Z,19.11
2018-06-21T03:27:34.547Z,19.18
2018-06-21T03:30:03.177Z,19.38
2018-06-21T03:32:32.090Z,19.44
2018-06-21T03:35:00.760Z,19.39
2018-06-21T03:37:29.771Z,19.36
2018-06-21T03:39:58.437Z,19.41
2018-06-21T03:42:27.067Z,19.47
2018-06-21T03:44:55.705Z,19.46
2018-06-21T03:47:24.382Z,19.27
2018-06-21T03:49:52.984Z,19.18
2018-06-21T03:52:21.672Z,19.16
2018-06-21T03:54:50.688Z,19.15
2018-06-21T03:57:19.337Z,19.10
2018-06-21T03:59:47.967Z,18.94
2018-06-21T04:02:16.710Z,18.93
2018-06-21T04:04:45.354Z,19.04
2018-06-21T04:07:14.063Z,19.07
2018-06-21T04:09:42.708Z,19.14
2018-06-21T04:12:11.357Z,19.02
2018-06-21T04:14:40.124Z,18.92
2018-06-21T04:17:08.764Z,18.89
2018-06-21T04:19:37.508Z,18.88
2018-06-21T04:22:06.168Z,18.79
2018-06-21T04:24:35.107Z,18.80
2018-06-21T04:27:03.770Z,18.96
2018-06-21T04:29:32.451Z,19.02
2018-06-21T04:32:01.128Z,19.03
2018-06-21T04:34:30.458Z,19.03
2018-06-21T04:36:59.408Z,19.06
2018-06-21T04:39:28.386Z,19.07
2018-06-21T04:41:57.264Z,19.15
2018-06-21T04:44:26.086Z,19.15
2018-06-21T04:46:54.793Z,19.18
2018-06-21T04:49:23.787Z,19.22
2018-06-21T04:51:52.419Z,19.32
2018-06-21T04:54:21.103Z,19.24
2018-06-21T04:56:50.087Z,19.39
2018-06-21T04:59:18.791Z,19.20
2018-06-21T05:01:47.394Z,19.16
2018-06-21T05:04:16.350Z,19.37
2018-06-21T05:06:45.086Z,19.42
2018-06-21T05:09:14.063Z,19.38
2018-06-21T05:11:42.769Z,19.37
2018-06-21T05:14:11.424Z,19.51
2018-06-21T05:16:40.128Z,19.64
2018-06-21T05:19:08.798Z,19.64
2018-06-21T05:21:37.498Z,19.94
2018-06-21T05:24:06.371Z,20.27
2018-06-21T05:26:35.539Z,20.59
2018-06-21T05:29:04.966Z,21.17
2018-06-21T05:31:33.631Z,21.35
2018-06-21T05:34:02.254Z,21.66
2018-06-21T05:36:31.251Z,21.23
2018-06-21T05:39:00.157Z,21.04
2018-06-21T05:41:28.881Z,21.56
2018-06-21T05:43:57.531Z,22.48
2018-06-21T05:46:26.456Z,23.05
2018-06-21T05:48:55.401Z,23.69
2018-06-21T05:51:24.287Z,24.03
2018-06-21T05:53:52.991Z,24.40
2018-06-21T05:56:22.308Z,23.79
2018-06-21T05:58:50.966Z,23.35
2018-06-21T06:01:19.651Z,23.49
2018-06-21T06:03:48.848Z,23.24
2018-06-21T06:06:17.522Z,23.04
2018-06-21T06:08:46.192Z,22.79
2018-06-21T06:11:14.858Z,23.33
2018-06-21T06:13:43.514Z,23.99
2018-06-21T06:16:12.727Z,23.68
2018-06-21T06:18:41.426Z,24.67
2018-06-21T06:21:10.041Z,25.38
2018-06-21T06:23:38.636Z,25.70
2018-06-21T06:26:07.275Z,26.61
2018-06-21T06:28:36.037Z,27.32
2018-06-21T06:31:04.676Z,27.16
2018-06-21T06:33:33.324Z,27.39
2018-06-21T06:36:01.962Z,27.21
2018-06-21T06:38:30.582Z,27.07
2018-06-21T06:40:59.241Z,27.38
2018-06-21T06:43:28.161Z,27.74
2018-06-21T06:45:57.179Z,27.93
2018-06-21T06:48:26.627Z,28.28
2018-06-21T06:50:55.865Z,28.31
2018-06-21T06:53:24.821Z,27.91
2018-06-21T06:55:53.512Z,27.71
2018-06-21T06:58:22.436Z,27.63
2018-06-21T07:00:51.160Z,28.35
2018-06-21T07:03:19.763Z,28.46
2018-06-21T07:05:48.460Z,27.57
2018-06-21T07:08:19.010Z,27.70
2018-06-21T07:10:47.651Z,27.86
2018-06-21T07:13:16.287Z,27.17
2018-06-21T07:15:44.971Z,26.50
2018-06-21T07:18:13.581Z,26.54
2018-06-21T07:20:42.246Z,26.62
2018-06-21T07:23:10.882Z,26.50
2018-06-21T07:25:39.522Z,26.38
2018-06-21T07:28:08.172Z,26.86
2018-06-21T07:30:36.770Z,27.41
2018-06-21T07:33:05.412Z,28.06
2018-06-21T07:35:34.032Z,27.33
2018-06-21T07:38:02.933Z,28.57
2018-06-21T07:40:31.638Z,29.67
2018-06-21T07:43:00.306Z,29.79
2018-06-21T07:45:29.059Z,30.25
2018-06-21T07:47:58.020Z,29.14
2018-06-21T07:50:26.643Z,30.89
2018-06-21T07:52:55.251Z,29.84
2018-06-21T07:55:24.110Z,29.19
2018-06-21T07:57:52.758Z,29.85
2018-06-21T08:00:21.393Z,29.00
2018-06-21T08:02:50.404Z,28.44
2018-06-21T08:05:19.179Z,29.10
2018-06-21T08:07:47.803Z,29.91
2018-06-21T08:10:16.583Z,30.52
2018-06-21T08:12:45.255Z,31.09
2018-06-21T08:15:14.797Z,31.46
2018-06-21T08:17:43.461Z,31.64
2018-06-21T08:20:12.241Z,30.72
2018-06-21T08:22:40.867Z,30.38
2018-06-21T08:25:09.526Z,30.61
2018-06-21T08:27:38.170Z,30.48
2018-06-21T08:30:06.819Z,31.07
2018-06-21T08:32:35.452Z,30.95
2018-06-21T08:35:04.133Z,31.12
2018-06-21T08:37:32.814Z,31.54
2018-06-21T08:40:01.463Z,31.75
2018-06-21T08:42:30.134Z,31.70
2018-06-21T08:44:58.836Z,32.15
2018-06-21T08:47:27.455Z,31.81
2018-06-21T08:49:56.122Z,31.92
2018-06-21T08:52:25.755Z,32.25
2018-06-21T08:54:54.453Z,32.61
2018-06-21T08:57:23.096Z,32.72
2018-06-21T08:59:51.792Z,32.07
2018-06-21T09:02:20.431Z,32.35
2018-06-21T09:04:49.723Z,32.87
2018-06-21T09:07:18.352Z,32.67
2018-06-21T09:09:46.985Z,32.71
2018-06-21T09:12:17.550Z,32.73
2018-06-21T09:14:46.800Z,32.42
2018-06-21T09:17:15.531Z,32.43
2018-06-21T09:19:45.097Z,32.52
2018-06-21T09:22:14.046Z,32.18
2018-06-21T09:24:43.082Z,32.40
2018-06-21T09:27:12.613Z,32.43
2018-06-21T09:29:41.239Z,33.23
2018-06-21T09:32:09.884Z,32.39
2018-06-21T09:34:38.555Z,31.39
2018-06-21T09:37:07.190Z,31.80
2018-06-21T09:39:41.070Z,32.16
2018-06-21T09:42:14.962Z,32.37
2018-06-21T09:44:48.982Z,32.54
2018-06-21T09:47:22.914Z,32.87
2018-06-21T09:49:51.603Z,32.87
2018-06-21T09:52:20.615Z,31.69
2018-06-21T09:54:49.247Z,31.45
2018-06-21T09:57:18.158Z,31.68
2018-06-21T09:59:46.790Z,32.82
2018-06-21T10:02:15.452Z,32.17
2018-06-21T10:04:44.207Z,31.32
2018-06-21T10:07:13.074Z,30.51
2018-06-21T10:09:41.527Z,28.05
2018-06-21T10:12:10.342Z,25.52
2018-06-21T10:14:38.984Z,24.78
2018-06-21T10:17:08.846Z,24.87
2018-06-21T10:19:38.582Z,25.26
2018-06-21T10:22:07.526Z,25.69
2018-06-21T10:24:36.183Z,26.64
2018-06-21T10:27:04.819Z,28.36
2018-06-21T10:29:33.819Z,29.58
2018-06-21T10:32:02.442Z,30.56
2018-06-21T10:34:31.091Z,31.22
2018-06-21T10:36:59.780Z,32.27
2018-06-21T10:39:28.394Z,31.94
2018-06-21T10:41:57.065Z,32.31
2018-06-21T10:44:26.309Z,32.90
2018-06-21T10:46:55.000Z,31.74
2018-06-21T10:49:23.729Z,29.97
2018-06-21T10:51:52.374Z,28.89
2018-06-21T10:54:20.999Z,28.68
2018-06-21T10:56:49.607Z,28.46
2018-06-21T10:59:18.277Z,27.92
2018-06-21T11:01:46.875Z,27.21
2018-06-21T11:04:15.511Z,26.59
2018-06-21T11:06:44.107Z,26.11
2018-06-21T11:09:12.742Z,25.75
2018-06-21T11:11:41.342Z,25.69
2018-06-21T11:14:09.963Z,25.38
2018-06-21T11:16:38.599Z,25.17
2018-06-21T11:19:07.275Z,24.74
2018-06-21T11:21:35.911Z,24.40
2018-06-21T11:24:04.568Z,23.92
2018-06-21T11:26:33.176Z,23.54
2018-06-21T11:29:02.611Z,23.42
2018-06-21T11:31:31.191Z,23.37
2018-06-21T11:33:59.766Z,23.24
2018-06-21T11:36:28.403Z,23.39
2018-06-21T11:38:56.990Z,23.50
2018-06-21T11:41:25.695Z,23.58
2018-06-21T11:43:54.342Z,23.73
2018-06-21T11:46:22.974Z,23.78
2018-06-21T11:48:51.643Z,23.87
2018-06-21T11:51:20.239Z,23.92
2018-06-21T11:53:48.873Z,23.81
2018-06-21T11:56:17.480Z,23.78
2018-06-21T11:58:46.066Z,23.78
2018-06-21T12:01:14.691Z,23.88
2018-06-21T12:03:43.359Z,23.99
2018-06-21T12:06:12.147Z,24.03
2018-06-21T12:08:40.892Z,24.06
2018-06-21T12:11:09.523Z,24.08
2018-06-21T12:13:38.412Z,23.68
2018-06-21T12:16:07.539Z,23.94
2018-06-21T12:18:36.124Z,23.88
2018-06-21T12:21:04.717Z,23.79
2018-06-21T12:23:33.355Z,23.75
2018-06-21T12:26:02.044Z,23.58
2018-06-21T12:28:30.720Z,23.51
2018-06-21T12:30:59.436Z,23.36
2018-06-21T12:33:28.043Z,23.41
2018-06-21T12:35:56.632Z,23.65
2018-06-21T12:38:25.233Z,23.89
2018-06-21T12:40:53.822Z,24.18
2018-06-21T12:43:22.502Z,24.36
2018-06-21T12:45:51.172Z,24.55
2018-06-21T12:48:19.765Z,24.77
2018-06-21T12:50:48.432Z,24.85
2018-06-21T12:53:17.426Z,24.86
2018-06-21T12:55:46.040Z,24.88
2018-06-21T12:58:14.629Z,25.09
2018-06-21T13:00:43.366Z,25.02
2018-06-21T13:03:13.013Z,25.05
2018-06-21T13:05:41.719Z,24.06
2018-06-21T13:08:10.913Z,25.24
2018-06-21T13:10:50.807Z,25.75
2018-06-21T13:13:26.792Z,26.25
2018-06-21T13:15:55.628Z,26.00
2018-06-21T13:18:24.563Z,25.83
2018-06-21T13:20:53.487Z,26.51
2018-06-21T13:23:22.683Z,26.79
2018-06-21T13:25:52.170Z,26.91
2018-06-21T13:28:22.691Z,26.52
2018-06-21T13:30:51.895Z,26.35
2018-06-21T13:33:20.868Z,25.82
2018-06-21T13:35:49.710Z,25.42
2018-06-21T13:38:19.627Z,25.55
2018-06-21T13:40:48.450Z,25.53
2018-06-21T13:43:17.312Z,25.74
2018-06-21T13:45:46.302Z,25.81
2018-06-21T13:48:15.108Z,25.79
2018-06-21T13:50:44.263Z,25.88
2018-06-21T13:53:13.498Z,26.14
2018-06-21T13:55:42.287Z,26.11
2018-06-21T13:58:11.239Z,26.03
2018-06-21T14:00:40.215Z,26.17
2018-06-21T14:03:09.300Z,26.09
2018-06-21T14:05:38.274Z,26.07
2018-06-21T14:08:07.410Z,26.01
2018-06-21T14:10:37.830Z,26.16
2018-06-21T14:13:06.790Z,26.27
2018-06-21T14:15:36.758Z,26.30
2018-06-21T14:18:05.602Z,26.33
2018-06-21T14:20:34.812Z,26.09
2018-06-21T14:23:03.739Z,25.84
2018-06-21T14:25:32.452Z,25.67
2018-06-21T14:28:01.231Z,25.55
2018-06-21T14:30:29.983Z,25.78
2018-06-21T14:32:58.655Z,25.94
2018-06-21T14:35:28.048Z,25.73
2018-06-21T14:37:56.786Z,25.72
2018-06-21T14:40:25.727Z,25.92
2018-06-21T14:42:54.346Z,25.98
2018-06-21T14:45:23.336Z,25.99
2018-06-21T14:47:52.085Z,26.04
2018-06-21T14:50:20.858Z,26.03
2018-06-21T14:52:49.571Z,25.93
2018-06-21T14:55:18.719Z,26.08
2018-06-21T14:57:47.673Z,26.08
2018-06-21T15:00:16.683Z,26.13
2018-06-21T15:02:46.022Z,25.31
2018-06-21T15:05:14.896Z,24.61
2018-06-21T15:07:43.867Z,26.15
2018-06-21T15:10:13.210Z,26.31
2018-06-21T15:12:42.276Z,26.36
2018-06-21T15:15:11.528Z,26.50
2018-06-21T15:17:40.766Z,26.59
2018-06-21T15:20:09.796Z,26.66
2018-06-21T15:22:38.967Z,26.43
2018-06-21T15:25:07.968Z,26.45
2018-06-21T15:27:36.988Z,26.48
2018-06-21T15:30:06.313Z,26.60
2018-06-21T15:32:35.228Z,26.58
2018-06-21T15:35:04.060Z,26.47
2018-06-21T15:37:33.180Z,26.45
2018-06-21T15:40:02.274Z,26.35
2018-06-21T15:42:31.813Z,26.22
2018-06-21T15:45:00.787Z,26.07
2018-06-21T15:47:29.956Z,25.89
2018-06-21T15:49:59.002Z,25.87
2018-06-21T15:52:27.967Z,25.79
2018-06-21T15:54:57.005Z,25.61
2018-06-21T15:57:25.910Z,25.13
2018-06-21T15:59:54.776Z,25.64
2018-06-21T16:02:23.671Z,25.16
2018-06-21T16:04:52.681Z,25.56
2018-06-21T16:07:21.891Z,25.47
2018-06-21T16:09:51.342Z,25.47
2018-06-21T16:12:20.308Z,25.48
2018-06-21T16:14:49.539Z,25.53
2018-06-21T16:17:18.551Z,25.46
2018-06-21T16:19:49.166Z,25.37
2018-06-21T16:22:19.395Z,25.35
2018-06-21T16:24:48.167Z,25.32
2018-06-21T16:27:16.961Z,25.30
2018-06-21T16:29:46.150Z,25.29
2018-06-21T16:32:15.190Z,24.84
2018-06-21T16:34:44.199Z,25.16
2018-06-21T16:37:13.230Z,25.11
2018-06-21T16:39:42.333Z,25.03
2018-06-21T16:42:12.075Z,24.96
2018-06-21T16:44:40.949Z,24.88
2018-06-21T16:47:10.029Z,24.82
2018-06-21T16:49:38.669Z,24.69
2018-06-21T16:52:07.411Z,24.63
2018-06-21T16:54:36.061Z,24.49
2018-06-21T16:57:04.814Z,24.43
2018-06-21T16:59:33.434Z,24.33
2018-06-21T17:02:02.612Z,24.31
2018-06-21T17:04:31.192Z,24.30
2018-06-21T17:06:59.903Z,24.20
2018-06-21T17:09:28.553Z,24.23
2018-06-21T17:11:57.138Z,24.20
2018-06-21T17:14:25.855Z,24.13
2018-06-21T17:16:54.649Z,23.96
2018-06-21T17:19:23.290Z,23.81
2018-06-21T17:21:52.299Z,23.79
2018-06-21T17:24:21.202Z,23.77
2018-06-21T17:26:49.798Z,23.73
2018-06-21T17:29:18.459Z,23.79
2018-06-21T17:31:47.067Z,23.82
2018-06-21T17:34:15.996Z,23.79
2018-06-21T17:36:44.652Z,23.76
2018-06-21T17:39:13.242Z,23.71
2018-06-21T17:41:41.926Z,23.60
2018-06-21T17:44:10.503Z,23.56
2018-06-21T17:46:39.099Z,23.50
2018-06-21T17:49:08.067Z,23.42
2018-06-21T17:51:36.691Z,23.36
2018-06-21T17:54:05.486Z,23.26
2018-06-21T17:56:34.223Z,23.22
2018-06-21T17:59:02.946Z,23.15
2018-06-21T18:01:31.628Z,23.11
2018-06-21T18:04:01.043Z,23.16
2018-06-21T18:06:29.621Z,23.15
2018-06-21T18:08:58.264Z,23.08
2018-06-21T18:11:26.861Z,23.02
2018-06-21T18:13:55.541Z,22.94
2018-06-21T18:16:24.141Z,22.87
2018-06-21T18:18:52.807Z,22.84
2018-06-21T18:21:21.454Z,22.82
2018-06-21T18:23:51.119Z,22.79
2018-06-21T18:26:19.831Z,22.72
2018-06-21T18:28:48.729Z,22.68
2018-06-21T18:31:17.811Z,22.66
2018-06-21T18:33:46.488Z,22.64
2018-06-21T18:36:15.112Z,22.64
2018-06-21T18:38:43.724Z,22.60
2018-06-21T18:41:12.790Z,22.57
2018-06-21T18:43:41.891Z,22.47
2018-06-21T18:46:11.237Z,22.44
2018-06-21T18:48:40.020Z,22.36
2018-06-21T18:51:08.864Z,22.36
2018-06-21T18:53:37.528Z,22.33
2018-06-21T18:56:06.337Z,22.28
2018-06-21T18:58:35.009Z,22.16
2018-06-21T19:01:04.619Z,22.09
2018-06-21T19:03:33.353Z,22.00
2018-06-21T19:06:02.552Z,21.94
2018-06-21T19:08:36.478Z,21.94
2018-06-21T19:11:11.942Z,21.89
2018-06-21T19:13:44.559Z,21.83
2018-06-21T19:16:14.164Z,21.78
2018-06-21T19:18:42.941Z,21.72
2018-06-21T19:21:12.168Z,21.61
2018-06-21T19:23:40.938Z,21.49
2018-06-21T19:26:10.266Z,21.39
2018-06-21T19:28:39.404Z,21.29
2018-06-21T19:31:08.143Z,21.26
2018-06-21T19:33:36.791Z,21.21
2018-06-21T19:36:05.612Z,21.17
2018-06-21T19:38:34.247Z,21.09
2018-06-21T19:41:02.878Z,21.08
2018-06-21T19:43:31.541Z,21.02
2018-06-21T19:46:00.178Z,20.98
2018-06-21T19:48:28.859Z,20.93
2018-06-21T19:50:57.664Z,20.88
2018-06-21T19:53:26.282Z,20.86
2018-06-21T19:55:54.914Z,20.88
2018-06-21T19:58:23.756Z,20.92
2018-06-21T20:00:52.384Z,20.97
2018-06-21T20:03:21.203Z,20.94
2018-06-21T20:05:49.731Z,20.94
2018-06-21T20:08:18.842Z,20.94
2018-06-21T20:10:51.748Z,20.87
2018-06-21T20:13:20.536Z,20.93
2018-06-21T20:15:52.608Z,21.03
2018-06-21T20:18:22.380Z,21.06
2018-06-21T20:20:51.154Z,21.03
2018-06-21T20:23:20.818Z,21.03
2018-06-21T20:25:49.849Z,21.09
2018-06-21T20:28:18.492Z,21.19
2018-06-21T20:30:47.146Z,21.19
2018-06-21T20:33:15.788Z,21.21
2018-06-21T20:35:44.696Z,21.33
2018-06-21T20:38:13.650Z,21.49
2018-06-21T20:40:42.234Z,21.37
2018-06-21T20:43:11.504Z,21.20
2018-06-21T20:45:40.840Z,20.97
2018-06-21T20:48:09.630Z,20.87
2018-06-21T20:50:38.930Z,21.00
2018-06-21T20:53:07.502Z,21.12
2018-06-21T20:55:36.903Z,21.22
2018-06-21T20:58:05.526Z,21.27
2018-06-21T21:00:34.200Z,21.38
2018-06-21T21:03:02.868Z,21.34
2018-06-21T21:05:31.553Z,21.41
2018-06-21T21:08:00.163Z,21.52
2018-06-21T21:10:28.780Z,21.52
2018-06-21T21:12:57.570Z,21.50
2018-06-21T21:15:26.248Z,21.51
2018-06-21T21:17:54.863Z,21.29
2018-06-21T21:20:23.443Z,21.09
2018-06-21T21:22:52.420Z,21.09
2018-06-21T21:25:21.030Z,21.02
2018-06-21T21:27:49.990Z,20.92
2018-06-21T21:30:18.880Z,20.83
2018-06-21T21:32:47.546Z,20.82
2018-06-21T21:35:16.132Z,20.81
2018-06-21T21:37:44.725Z,20.71
2018-06-21T21:40:13.360Z,20.68
2018-06-21T21:42:41.997Z,20.53
2018-06-21T21:45:10.608Z,20.49
2018-06-21T21:47:39.195Z,20.41
2018-06-21T21:50:08.290Z,20.31
2018-06-21T21:52:36.985Z,20.24
2018-06-21T21:55:05.631Z,20.10
2018-06-21T21:57:34.278Z,20.09
2018-06-21T22:00:03.202Z,20.15
2018-06-21T22:02:31.807Z,20.24
2018-06-21T22:05:01.911Z,20.12
2018-06-21T22:07:30.906Z,19.95
2018-06-21T22:09:59.493Z,19.98
2018-06-21T22:12:28.127Z,20.04
2018-06-21T22:14:56.760Z,19.93
2018-06-21T22:17:25.465Z,19.71
2018-06-21T22:19:54.108Z,19.57
2018-06-21T22:22:22.805Z,19.46
2018-06-21T22:24:51.388Z,19.38
2018-06-21T22:27:19.962Z,19.04
2018-06-21T22:29:48.571Z,19.14
2018-06-21T22:32:17.169Z,19.08
2018-06-21T22:34:45.828Z,19.05
2018-06-21T22:37:14.370Z,19.04
2018-06-21T22:39:43.026Z,18.89
2018-06-21T22:42:11.671Z,18.74
2018-06-21T22:44:40.269Z,18.66
2018-06-21T22:47:08.864Z,18.60
2018-06-21T22:49:37.523Z,18.60
2018-06-21T22:52:06.461Z,18.62
2018-06-21T22:54:35.100Z,18.74
2018-06-21T22:57:03.722Z,18.73
2018-06-21T22:59:32.348Z,18.54
2018-06-21T23:02:00.905Z,18.62
2018-06-21T23:04:29.552Z,18.60
2018-06-21T23:06:58.200Z,18.65
2018-06-21T23:09:27.012Z,18.58
2018-06-21T23:11:55.590Z,18.60
2018-06-21T23:14:24.218Z,18.68
2018-06-21T23:16:55.158Z,18.64
2018-06-21T23:19:29.931Z,18.61
2018-06-21T23:21:58.931Z,18.60
2018-06-21T23:24:27.819Z,18.52
2018-06-21T23:26:56.443Z,18.52
2018-06-21T23:29:25.276Z,18.23
2018-06-21T23:31:53.883Z,18.48
2018-06-21T23:34:23.204Z,18.55
2018-06-21T23:36:52.068Z,18.65
2018-06-21T23:39:20.671Z,18.74
2018-06-21T23:41:49.363Z,18.73
2018-06-21T23:44:17.948Z,18.73
2018-06-21T23:46:46.557Z,18.69
2018-06-21T23:49:15.203Z,18.64
2018-06-21T23:51:43.778Z,18.24
2018-06-21T23:54:13.584Z,18.21
2018-06-21T23:56:43.163Z,18.11
2018-06-21T23:59:11.875Z,18.06
